Time;durP1;ratioP1;P1;durP2;ratioP2;P2;SDS_P1;SDS_P2;PMS_P1;PMS_P2;Temp;Humidity;BMP_temperature;BMP_pressure;BME280_temperature;BME280_humidity;BME280_pressure;Samples;Min_cycle;Max_cycle;Signal;HPM_P1;HPM_P2
2021/06/10 00:00:12;;;;;;;8.27;7.50;;;18.40;99.90;;;;;;4995627;28;20420;-67
2021/06/10 00:02:41;;;;;;;7.43;6.40;;;18.40;99.90;;;;;;4992498;28;20798;-66
2021/06/10 00:05:12;;;;;;;8.27;7.00;;;18.40;99.90;;;;;;4990880;28;20883;-67
2021/06/10 00:07:40;;;;;;;8.67;6.33;;;18.40;99.90;;;;;;4990904;28;20481;-66
2021/06/10 00:10:09;;;;;;;8.03;6.27;;;18.50;99.90;;;;;;4990470;28;20424;-67
2021/06/10 00:12:37;;;;;;;7.50;5.90;;;18.50;99.90;;;;;;4990930;28;20429;-66
2021/06/10 00:15:08;;;;;;;7.10;6.37;;;18.60;99.90;;;;;;4990535;28;20445;-67
2021/06/10 00:17:36;;;;;;;9.40;7.53;;;18.50;99.90;;;;;;4991010;28;20830;-67
2021/06/10 00:20:06;;;;;;;11.57;9.50;;;18.50;99.90;;;;;;4990683;28;20429;-65
2021/06/10 00:22:35;;;;;;;8.27;7.43;;;18.50;99.90;;;;;;4990545;28;20424;-67
2021/06/10 00:25:03;;;;;;;8.10;7.30;;;18.50;99.90;;;;;;4990350;28;20926;-66
2021/06/10 00:27:31;;;;;;;6.30;5.70;;;18.70;99.90;;;;;;4990892;28;20935;-68
2021/06/10 00:29:59;;;;;;;10.70;8.50;;;18.70;99.90;;;;;;4990785;28;20465;-68
2021/06/10 00:32:26;;;;;;;10.40;8.30;;;18.60;99.90;;;;;;4990243;28;20483;-66
2021/06/10 00:34:54;;;;;;;8.50;7.20;;;18.50;99.90;;;;;;4990763;28;20430;-66
2021/06/10 00:37:22;;;;;;;8.17;6.67;;;18.40;99.90;;;;;;4990614;28;20451;-66
2021/06/10 00:39:51;;;;;;;6.87;6.17;;;18.40;99.90;;;;;;4989163;28;20450;-65
2021/06/10 00:42:18;;;;;;;7.20;6.40;;;18.20;99.90;;;;;;4990402;28;20779;-66
2021/06/10 00:44:46;;;;;;;7.13;6.43;;;18.10;99.90;;;;;;4990716;28;20407;-66
2021/06/10 00:47:14;;;;;;;6.73;6.10;;;18.00;99.90;;;;;;4990421;28;20818;-67
2021/06/10 00:49:43;;;;;;;13.27;7.53;;;17.90;99.90;;;;;;4990168;28;20446;-66
2021/06/10 00:52:12;;;;;;;8.67;6.53;;;17.80;99.90;;;;;;4989866;28;20467;-68
2021/06/10 00:54:40;;;;;;;8.70;6.60;;;17.80;99.90;;;;;;4990262;28;20420;-66
2021/06/10 00:57:10;;;;;;;5.80;5.27;;;17.90;99.90;;;;;;4990416;28;20432;-66
2021/06/10 00:59:38;;;;;;;6.07;5.57;;;17.90;99.90;;;;;;4989935;28;20425;-67
2021/06/10 01:02:05;;;;;;;7.73;7.03;;;18.00;99.90;;;;;;4989879;28;20806;-66
2021/06/10 01:04:33;;;;;;;9.43;6.40;;;18.10;99.90;;;;;;4989919;28;20404;-66
2021/06/10 01:07:05;;;;;;;8.57;7.20;;;18.00;99.90;;;;;;4990405;28;20451;-66
2021/06/10 01:09:39;;;;;;;6.20;5.70;;;18.10;99.90;;;;;;4988797;28;20509;-66
2021/06/10 01:12:14;;;;;;;10.83;8.33;;;18.10;99.90;;;;;;4988373;28;20465;-66
2021/06/10 01:14:46;;;;;;;5.20;4.70;;;18.00;99.90;;;;;;4989433;28;20407;-65
2021/06/10 01:17:14;;;;;;;6.87;5.47;;;18.00;99.90;;;;;;4989918;28;20400;-66
2021/06/10 01:19:58;;;;;;;5.37;4.50;;;18.10;99.90;;;;;;4989766;28;21197;-66
2021/06/10 01:22:33;;;;;;;8.40;6.60;;;18.10;99.90;;;;;;4990515;28;20396;-66
2021/06/10 01:25:13;;;;;;;6.30;5.73;;;18.20;99.90;;;;;;4992173;28;20429;-66
2021/06/10 01:27:46;;;;;;;6.80;6.10;;;18.20;99.90;;;;;;4991625;28;20546;-66
2021/06/10 01:30:17;;;;;;;7.30;6.60;;;18.20;99.90;;;;;;4990675;28;20855;-65
2021/06/10 01:32:51;;;;;;;8.10;6.40;;;18.30;99.90;;;;;;4992729;28;20404;-66
2021/06/10 01:35:22;;;;;;;10.23;6.40;;;18.40;99.90;;;;;;4992361;28;20400;-65
2021/06/10 01:37:51;;;;;;;6.23;5.67;;;18.40;99.90;;;;;;4990298;28;20865;-66
2021/06/10 01:40:22;;;;;;;6.57;5.97;;;18.50;99.90;;;;;;4990064;28;20428;-66
2021/06/10 01:42:52;;;;;;;5.77;5.27;;;18.40;99.90;;;;;;4989806;28;20904;-66
2021/06/10 01:45:21;;;;;;;6.83;5.50;;;18.20;99.90;;;;;;4989701;28;20459;-67
2021/06/10 01:47:49;;;;;;;6.27;5.77;;;18.20;99.90;;;;;;4989666;28;20448;-65
2021/06/10 01:50:22;;;;;;;6.50;5.77;;;18.30;99.90;;;;;;4989095;28;20431;-65
2021/06/10 01:52:52;;;;;;;7.30;6.60;;;18.30;99.90;;;;;;4989527;28;20422;-67
2021/06/10 01:55:22;;;;;;;9.27;8.43;;;18.20;99.90;;;;;;4988710;28;20954;-66
2021/06/10 01:57:53;;;;;;;6.73;6.13;;;18.10;99.90;;;;;;4989742;28;20397;-66
2021/06/10 02:00:22;;;;;;;7.40;6.80;;;18.10;99.90;;;;;;4989826;28;20477;-67
2021/06/10 02:02:52;;;;;;;8.20;7.40;;;18.10;99.90;;;;;;4988878;28;20485;-65
2021/06/10 02:05:21;;;;;;;6.27;5.70;;;18.10;99.90;;;;;;4989476;28;20400;-65
2021/06/10 02:07:50;;;;;;;6.77;5.20;;;18.20;99.90;;;;;;4989013;28;20477;-65
2021/06/10 02:10:23;;;;;;;7.83;5.83;;;18.20;99.90;;;;;;4990490;28;20508;-66
2021/06/10 02:12:53;;;;;;;8.13;6.93;;;18.10;99.90;;;;;;4992181;28;20950;-66
2021/06/10 02:15:20;;;;;;;8.10;6.93;;;18.00;99.90;;;;;;4990602;28;20412;-66
2021/06/10 02:17:49;;;;;;;7.93;6.90;;;17.90;99.90;;;;;;4991782;28;20426;-66
2021/06/10 02:20:19;;;;;;;7.90;6.20;;;17.90;99.90;;;;;;4990502;28;20623;-66
2021/06/10 02:22:47;;;;;;;8.53;7.57;;;18.00;99.90;;;;;;4991443;28;20464;-67
2021/06/10 02:25:15;;;;;;;6.37;5.77;;;17.90;99.90;;;;;;4989480;28;20492;-67
2021/06/10 02:27:43;;;;;;;7.77;7.07;;;18.10;99.90;;;;;;4987923;28;20439;-67
2021/06/10 02:30:14;;;;;;;8.40;6.87;;;18.00;99.90;;;;;;4987685;28;20943;-66
2021/06/10 02:32:42;;;;;;;8.87;7.17;;;18.00;99.90;;;;;;4988781;28;20400;-65
2021/06/10 02:35:12;;;;;;;10.37;7.30;;;18.10;99.90;;;;;;4992521;28;20537;-66
2021/06/10 02:37:44;;;;;;;10.53;8.50;;;18.00;99.90;;;;;;4993259;28;20587;-66
2021/06/10 02:40:15;;;;;;;8.47;6.70;;;18.10;99.90;;;;;;4992913;28;20416;-67
2021/06/10 02:42:44;;;;;;;8.13;6.60;;;18.20;99.90;;;;;;4991554;28;20418;-67
2021/06/10 02:45:15;;;;;;;15.90;6.90;;;18.30;99.90;;;;;;4992773;28;20764;-67
2021/06/10 02:47:44;;;;;;;7.80;7.00;;;18.30;99.90;;;;;;4992991;28;20977;-67
2021/06/10 02:50:15;;;;;;;7.90;6.00;;;18.30;99.90;;;;;;4992887;28;20416;-67
2021/06/10 02:52:46;;;;;;;6.87;6.20;;;18.30;99.90;;;;;;4992798;28;20392;-67
2021/06/10 02:55:16;;;;;;;7.97;6.57;;;18.50;99.90;;;;;;4993266;28;20430;-67
2021/06/10 02:57:46;;;;;;;8.67;6.10;;;18.50;99.90;;;;;;4993293;28;20454;-67
2021/06/10 03:00:17;;;;;;;8.40;6.30;;;18.50;99.90;;;;;;4993096;28;20420;-66
2021/06/10 03:02:46;;;;;;;7.33;6.43;;;18.40;99.90;;;;;;4992758;28;21040;-67
2021/06/10 03:05:15;;;;;;;6.53;5.90;;;18.20;99.90;;;;;;4992396;28;20397;-66
2021/06/10 03:07:43;;;;;;;6.67;5.97;;;18.00;99.90;;;;;;4992499;28;20447;-67
2021/06/10 03:10:13;;;;;;;6.87;5.77;;;18.00;99.90;;;;;;4992102;28;20827;-67
2021/06/10 03:12:42;;;;;;;6.50;5.87;;;17.90;99.90;;;;;;4991967;28;20459;-67
2021/06/10 03:15:11;;;;;;;7.93;7.20;;;17.80;99.90;;;;;;4992312;28;20436;-67
2021/06/10 03:17:42;;;;;;;7.07;5.77;;;17.70;99.90;;;;;;4992144;28;20434;-67
2021/06/10 03:20:10;;;;;;;7.10;5.60;;;17.70;99.90;;;;;;4991932;28;20427;-66
2021/06/10 03:22:39;;;;;;;6.23;5.63;;;17.60;99.90;;;;;;4991497;28;20404;-66
2021/06/10 03:25:09;;;;;;;9.43;6.03;;;17.50;99.90;;;;;;4991911;28;20422;-66
2021/06/10 03:27:38;;;;;;;7.10;6.50;;;17.50;99.90;;;;;;4991992;28;20480;-67
2021/06/10 03:30:09;;;;;;;6.60;6.00;;;17.50;99.90;;;;;;4991513;28;20505;-66
2021/06/10 03:32:38;;;;;;;5.37;4.87;;;17.50;99.90;;;;;;4991313;28;20405;-66
2021/06/10 03:35:09;;;;;;;6.60;5.97;;;17.40;99.90;;;;;;4990461;28;20420;-66
2021/06/10 03:37:38;;;;;;;8.03;5.87;;;17.20;99.90;;;;;;4991722;28;20403;-67
2021/06/10 03:40:08;;;;;;;7.80;6.60;;;17.00;99.90;;;;;;4991360;28;20772;-66
2021/06/10 03:42:37;;;;;;;5.93;5.43;;;16.90;99.90;;;;;;4991191;28;20417;-67
2021/06/10 03:45:06;;;;;;;8.30;6.07;;;16.90;99.90;;;;;;4990764;28;20499;-67
2021/06/10 03:47:34;;;;;;;7.60;6.87;;;17.00;99.90;;;;;;4991591;28;20466;-67
2021/06/10 03:50:02;;;;;;;8.80;6.80;;;17.20;99.90;;;;;;4991439;28;20455;-67
2021/06/10 03:52:31;;;;;;;7.77;7.07;;;17.40;99.90;;;;;;4989778;28;20416;-67
2021/06/10 03:54:59;;;;;;;7.87;6.33;;;17.20;99.90;;;;;;4991279;28;20421;-67
2021/06/10 03:57:27;;;;;;;8.10;7.27;;;17.10;99.90;;;;;;4991340;28;20430;-67
2021/06/10 03:59:54;;;;;;;7.90;6.90;;;17.20;99.90;;;;;;4991314;28;20417;-66
2021/06/10 04:02:22;;;;;;;6.53;5.93;;;17.10;99.90;;;;;;4990959;28;20401;-66
2021/06/10 04:04:50;;;;;;;7.17;6.50;;;17.20;99.90;;;;;;4990434;28;20904;-67
2021/06/10 04:07:17;;;;;;;7.10;6.43;;;17.30;99.90;;;;;;4990839;28;20545;-67
2021/06/10 04:09:46;;;;;;;6.00;5.50;;;17.70;99.90;;;;;;4990733;28;20453;-67
2021/06/10 04:12:14;;;;;;;6.73;6.20;;;19.00;99.90;;;;;;4990556;28;20507;-66
2021/06/10 04:14:42;;;;;;;6.77;6.27;;;20.90;99.90;;;;;;4989925;28;20970;-66
2021/06/10 04:17:10;;;;;;;6.83;6.23;;;22.00;99.90;;;;;;4990971;28;20821;-66
2021/06/10 04:19:37;;;;;;;6.90;6.30;;;22.00;99.90;;;;;;4990810;28;20417;-66
2021/06/10 04:22:05;;;;;;;9.00;6.97;;;21.40;99.90;;;;;;4990754;28;20404;-66
2021/06/10 04:24:32;;;;;;;7.57;6.50;;;20.90;99.90;;;;;;4990519;28;20422;-66
2021/06/10 04:27:02;;;;;;;6.70;6.10;;;20.60;99.90;;;;;;4990975;28;20950;-66
2021/06/10 04:29:30;;;;;;;7.07;6.40;;;20.30;99.90;;;;;;4990421;28;20468;-66
2021/06/10 04:31:58;;;;;;;6.83;6.13;;;20.30;99.90;;;;;;4991798;28;20405;-66
2021/06/10 04:34:26;;;;;;;7.30;6.70;;;20.10;99.90;;;;;;4991824;28;20412;-66
2021/06/10 04:36:53;;;;;;;7.50;6.90;;;20.10;99.90;;;;;;4990839;28;20660;-66
2021/06/10 04:39:21;;;;;;;6.47;5.80;;;20.20;99.90;;;;;;4991466;28;20469;-66
2021/06/10 04:41:49;;;;;;;7.33;6.67;;;20.80;99.90;;;;;;4991213;28;20404;-66
2021/06/10 04:44:18;;;;;;;6.83;6.23;;;21.90;99.90;;;;;;4990751;28;20974;-66
2021/06/10 04:46:45;;;;;;;7.67;5.67;;;23.50;99.90;;;;;;4990540;28;20420;-67
2021/06/10 04:49:13;;;;;;;7.00;6.23;;;25.00;99.90;;;;;;4990405;28;20417;-67
2021/06/10 04:51:41;;;;;;;6.70;6.20;;;24.80;99.90;;;;;;4990808;28;20430;-67
2021/06/10 04:54:09;;;;;;;6.60;5.90;;;24.10;99.90;;;;;;4989888;28;20513;-67
2021/06/10 04:56:36;;;;;;;6.63;6.03;;;25.10;99.90;;;;;;4989711;28;20513;-66
2021/06/10 04:59:04;;;;;;;7.73;6.30;;;26.70;99.90;;;;;;4988444;28;20434;-67
2021/06/10 05:01:33;;;;;;;6.97;6.33;;;28.20;99.90;;;;;;4990186;28;20430;-65
2021/06/10 05:04:02;;;;;;;6.83;6.33;;;29.30;99.90;;;;;;4987995;28;20830;-67
2021/06/10 05:06:30;;;;;;;7.97;7.30;;;30.10;99.90;;;;;;4989755;28;20484;-67
2021/06/10 05:08:57;;;;;;;7.60;6.90;;;30.80;99.90;;;;;;4989505;28;20992;-67
2021/06/10 05:11:25;;;;;;;8.00;7.20;;;30.80;99.90;;;;;;4990070;28;21002;-67
2021/06/10 05:13:53;;;;;;;7.07;5.80;;;31.10;99.90;;;;;;4989423;28;20844;-67
2021/06/10 05:16:21;;;;;;;5.73;5.23;;;30.70;99.90;;;;;;4989845;28;20426;-67
2021/06/10 05:18:50;;;;;;;6.23;5.63;;;31.00;99.90;;;;;;4989680;28;20491;-66
2021/06/10 05:21:17;;;;;;;6.10;5.60;;;30.80;99.90;;;;;;4989166;28;20453;-66
2021/06/10 05:23:45;;;;;;;6.30;5.70;;;29.70;99.90;;;;;;4988574;28;20434;-66
2021/06/10 05:26:13;;;;;;;6.10;5.60;;;29.40;99.90;;;;;;4989515;28;20434;-66
2021/06/10 05:28:41;;;;;;;5.67;5.20;;;28.20;99.90;;;;;;4969837;28;20973;-66
2021/06/10 05:31:08;;;;;;;6.77;5.80;;;26.70;99.90;;;;;;4969952;28;20435;-67
2021/06/10 05:33:36;;;;;;;5.73;5.33;;;27.00;99.90;;;;;;4969445;28;20437;-67
2021/06/10 05:36:06;;;;;;;6.60;6.00;;;27.00;99.90;;;;;;4970629;28;20430;-66
2021/06/10 05:38:34;;;;;;;15.80;5.20;;;25.90;99.90;;;;;;4988399;28;20434;-66
2021/06/10 05:41:02;;;;;;;6.00;5.50;;;24.60;99.90;;;;;;4989831;28;21028;-66
2021/06/10 05:43:30;;;;;;;6.97;4.97;;;23.80;99.90;;;;;;4989225;28;20853;-67
2021/06/10 05:45:58;;;;;;;8.07;5.33;;;23.50;99.90;;;;;;4990267;28;20630;-66
2021/06/10 05:48:25;;;;;;;6.60;6.10;;;23.30;99.90;;;;;;4989122;28;20473;-66
2021/06/10 05:50:53;;;;;;;5.80;5.30;;;23.30;99.90;;;;;;4989043;28;20450;-67
2021/06/10 05:53:24;;;;;;;6.00;5.40;;;23.30;99.90;;;;;;4988775;28;20505;-67
2021/06/10 05:55:52;;;;;;;5.67;5.17;;;23.10;99.90;;;;;;4989129;28;20400;-69
2021/06/10 05:58:19;;;;;;;7.57;5.40;;;23.00;99.90;;;;;;4988555;28;20426;-68
2021/06/10 06:00:47;;;;;;;5.50;4.83;;;22.90;99.90;;;;;;4988699;28;20420;-67
2021/06/10 06:03:15;;;;;;;5.07;4.57;;;22.60;99.90;;;;;;4988679;28;20426;-67
2021/06/10 06:05:42;;;;;;;5.83;5.20;;;22.30;99.90;;;;;;4988351;28;20422;-67
2021/06/10 06:08:11;;;;;;;5.53;5.03;;;22.10;99.90;;;;;;4988600;28;20498;-66
2021/06/10 06:10:40;;;;;;;5.60;4.70;;;22.00;99.90;;;;;;4992636;28;20449;-66
2021/06/10 06:13:09;;;;;;;5.60;5.10;;;22.10;99.90;;;;;;4992431;28;20897;-66
2021/06/10 06:15:37;;;;;;;6.13;5.63;;;22.10;99.90;;;;;;4992885;28;20438;-68
2021/06/10 06:18:05;;;;;;;6.53;5.73;;;22.10;99.90;;;;;;4993022;28;20678;-67
2021/06/10 06:20:33;;;;;;;5.40;5.00;;;22.30;99.90;;;;;;4992539;28;20446;-67
2021/06/10 06:23:00;;;;;;;7.13;5.80;;;22.20;99.90;;;;;;4992520;28;20425;-66
2021/06/10 06:25:28;;;;;;;7.33;6.63;;;22.10;99.90;;;;;;4992936;28;20951;-66
2021/06/10 06:27:57;;;;;;;5.67;5.17;;;22.30;99.90;;;;;;4993336;28;20452;-66
2021/06/10 06:30:25;;;;;;;6.70;6.13;;;22.50;99.90;;;;;;4992982;28;20504;-66
2021/06/10 06:32:52;;;;;;;5.87;5.37;;;22.70;99.90;;;;;;4992799;28;20433;-66
2021/06/10 06:35:20;;;;;;;8.27;5.97;;;22.90;99.90;;;;;;4992959;28;20827;-66
2021/06/10 06:37:49;;;;;;;6.17;5.70;;;23.00;99.90;;;;;;4992919;28;20422;-66
2021/06/10 06:40:20;;;;;;;7.90;5.90;;;23.10;99.90;;;;;;4992620;28;20416;-66
2021/06/10 06:42:47;;;;;;;5.40;5.00;;;23.20;99.90;;;;;;4991803;28;20725;-66
2021/06/10 06:45:16;;;;;;;5.80;5.30;;;23.40;99.90;;;;;;4992499;28;20422;-65
2021/06/10 06:47:44;;;;;;;5.80;5.30;;;23.70;99.90;;;;;;4990830;28;20469;-66
2021/06/10 06:50:13;;;;;;;6.13;5.60;;;23.90;99.90;;;;;;4985671;28;20461;-66
2021/06/10 06:52:40;;;;;;;6.80;6.30;;;23.50;99.90;;;;;;4991944;28;20818;-66
2021/06/10 06:55:09;;;;;;;5.80;5.20;;;23.40;99.90;;;;;;4989305;28;21084;-67
2021/06/10 06:57:37;;;;;;;4.80;4.40;;;23.50;99.90;;;;;;4992554;28;20524;-66
2021/06/10 07:00:06;;;;;;;6.33;5.03;;;23.80;99.90;;;;;;4992033;28;20842;-67
2021/06/10 07:02:35;;;;;;;5.10;4.63;;;23.80;99.90;;;;;;4992407;28;20397;-67
2021/06/10 07:05:07;;;;;;;5.07;4.67;;;23.90;99.90;;;;;;4991157;28;20734;-65
2021/06/10 07:07:35;;;;;;;5.00;4.50;;;23.70;99.90;;;;;;4991555;28;20434;-67
2021/06/10 07:10:03;;;;;;;4.10;3.80;;;23.60;99.90;;;;;;4991394;28;20446;-67
2021/06/10 07:12:30;;;;;;;3.50;3.30;;;23.70;99.90;;;;;;4990826;28;20489;-69
2021/06/10 07:14:59;;;;;;;5.80;4.30;;;23.70;99.90;;;;;;4989932;28;21027;-67
2021/06/10 07:17:27;;;;;;;5.07;4.67;;;23.50;99.90;;;;;;4990905;28;20438;-65
2021/06/10 07:19:57;;;;;;;3.93;3.63;;;23.60;99.90;;;;;;4989718;28;20473;-66
2021/06/10 07:22:24;;;;;;;5.10;4.30;;;23.60;99.90;;;;;;4988288;28;20813;-66
2021/06/10 07:24:52;;;;;;;4.43;4.03;;;23.70;99.90;;;;;;4990473;28;20793;-67
2021/06/10 07:27:20;;;;;;;3.97;3.67;;;23.60;99.90;;;;;;4990465;28;20446;-66
2021/06/10 07:29:47;;;;;;;3.80;3.50;;;23.90;99.90;;;;;;4988624;28;20444;-67
2021/06/10 07:32:15;;;;;;;3.60;3.30;;;24.10;99.90;;;;;;4990182;28;20436;-67
2021/06/10 07:34:43;;;;;;;4.67;4.27;;;24.00;99.90;;;;;;4987912;28;20434;-67
2021/06/10 07:37:12;;;;;;;3.93;3.63;;;24.00;99.90;;;;;;4990495;28;20421;-66
2021/06/10 07:39:40;;;;;;;11.93;6.00;;;24.10;99.90;;;;;;4991566;28;20451;-67
2021/06/10 07:42:09;;;;;;;5.70;5.20;;;24.30;99.90;;;;;;4989481;28;20434;-67
2021/06/10 07:44:37;;;;;;;5.87;5.40;;;24.30;99.90;;;;;;4990618;28;20438;-67
2021/06/10 07:47:06;;;;;;;5.30;4.90;;;24.30;99.90;;;;;;4991263;28;20747;-67
2021/06/10 07:49:33;;;;;;;6.07;5.03;;;24.30;99.90;;;;;;4988545;28;20456;-67
2021/06/10 07:52:01;;;;;;;5.63;4.40;;;24.30;99.90;;;;;;4988257;28;20509;-67
2021/06/10 07:54:30;;;;;;;9.40;5.63;;;24.30;99.90;;;;;;4991149;28;20412;-67
2021/06/10 07:56:58;;;;;;;9.37;5.87;;;24.40;99.90;;;;;;4991852;28;20404;-66
2021/06/10 07:59:26;;;;;;;6.53;5.43;;;24.50;99.90;;;;;;4991522;28;20508;-67
2021/06/10 08:01:54;;;;;;;7.27;6.20;;;24.60;99.90;;;;;;4991344;28;20422;-67
2021/06/10 08:04:22;;;;;;;6.30;5.70;;;24.80;99.90;;;;;;4989726;28;20430;-66
2021/06/10 08:06:50;;;;;;;5.63;5.10;;;24.70;99.90;;;;;;4993732;28;20492;-67
2021/06/10 08:09:18;;;;;;;5.90;5.40;;;24.60;99.90;;;;;;4991437;28;20555;-67
2021/06/10 08:11:50;;;;;;;8.40;4.80;;;24.50;99.90;;;;;;4992082;28;20460;-67
2021/06/10 08:14:18;;;;;;;5.20;4.70;;;24.70;99.90;;;;;;4994733;28;20445;-67
2021/06/10 08:16:46;;;;;;;4.83;4.43;;;24.70;99.90;;;;;;4992607;28;20419;-67
2021/06/10 08:19:14;;;;;;;5.93;5.43;;;24.60;99.90;;;;;;4990138;28;20449;-67
2021/06/10 08:21:42;;;;;;;5.33;4.83;;;24.80;99.90;;;;;;4990713;28;20426;-67
2021/06/10 08:24:11;;;;;;;6.67;6.03;;;25.00;99.90;;;;;;4990018;28;20465;-67
2021/06/10 08:26:39;;;;;;;5.40;4.90;;;24.70;99.90;;;;;;4989619;28;20943;-67
2021/06/10 08:29:08;;;;;;;6.17;5.57;;;24.80;99.90;;;;;;4990578;28;20466;-67
2021/06/10 08:31:36;;;;;;;5.03;4.63;;;24.70;99.90;;;;;;4990687;28;20984;-67
2021/06/10 08:34:03;;;;;;;6.37;5.77;;;24.90;99.90;;;;;;4989661;28;20428;-67
2021/06/10 08:36:31;;;;;;;6.10;5.50;;;24.90;99.90;;;;;;4988588;28;20437;-68
2021/06/10 08:38:59;;;;;;;6.30;5.80;;;24.80;99.90;;;;;;4990068;28;20480;-67
2021/06/10 08:41:28;;;;;;;6.23;5.73;;;24.90;99.90;;;;;;4990051;28;20422;-67
2021/06/10 08:43:58;;;;;;;6.40;5.87;;;24.80;99.90;;;;;;4982322;28;20400;-66
2021/06/10 08:46:30;;;;;;;6.27;5.67;;;24.90;99.90;;;;;;4989889;28;20401;-66
2021/06/10 08:48:57;;;;;;;6.63;5.93;;;24.80;99.90;;;;;;4989347;28;20472;-67
2021/06/10 08:51:25;;;;;;;6.43;5.80;;;24.90;99.90;;;;;;4989848;28;20932;-67
2021/06/10 08:53:56;;;;;;;6.10;5.60;;;25.00;99.90;;;;;;4989553;28;20461;-66
2021/06/10 08:56:24;;;;;;;8.23;7.47;;;25.10;99.90;;;;;;4989791;28;20522;-66
2021/06/10 08:58:52;;;;;;;8.30;7.20;;;25.20;99.90;;;;;;4989613;28;20430;-67
2021/06/10 09:01:20;;;;;;;7.90;7.20;;;25.10;99.90;;;;;;4988356;28;21010;-66
2021/06/10 09:03:49;;;;;;;6.00;5.50;;;25.10;99.90;;;;;;4989560;28;20480;-66
2021/06/10 09:06:18;;;;;;;6.20;5.70;;;25.30;99.90;;;;;;4989768;28;20444;-66
2021/06/10 09:08:47;;;;;;;5.80;5.30;;;25.50;99.90;;;;;;4989891;28;20461;-66
2021/06/10 09:11:16;;;;;;;6.30;5.80;;;25.90;99.90;;;;;;4989690;28;20957;-66
2021/06/10 09:13:48;;;;;;;7.77;6.97;;;26.00;99.90;;;;;;4988816;28;20512;-68
2021/06/10 09:16:24;;;;;;;6.40;5.83;;;25.90;99.90;;;;;;4988584;28;20775;-66
2021/06/10 09:18:56;;;;;;;5.93;5.43;;;25.80;99.90;;;;;;4987941;28;20434;-66
2021/06/10 09:21:26;;;;;;;7.17;6.50;;;25.70;99.90;;;;;;4989579;28;20861;-67
2021/06/10 09:23:55;;;;;;;7.10;6.47;;;25.70;99.90;;;;;;4988264;28;20427;-66
2021/06/10 09:26:23;;;;;;;8.03;6.90;;;25.70;99.90;;;;;;4990052;28;20438;-67
2021/06/10 09:29:03;;;;;;;7.40;6.30;;;25.50;99.90;;;;;;4989320;28;20474;-66
2021/06/10 09:31:33;;;;;;;7.60;6.90;;;25.40;99.90;;;;;;4990245;28;20411;-66
2021/06/10 09:34:07;;;;;;;6.00;5.50;;;25.40;99.90;;;;;;4987650;28;20454;-66
2021/06/10 09:36:42;;;;;;;5.83;5.33;;;25.40;99.90;;;;;;4990319;28;20433;-67
2021/06/10 09:39:13;;;;;;;6.50;5.90;;;25.50;99.90;;;;;;4988686;28;20922;-65
2021/06/10 09:42:03;;;;;;;7.80;7.00;;;25.70;99.90;;;;;;4990087;28;20422;-66
2021/06/10 09:44:39;;;;;;;5.43;5.03;;;25.70;99.90;;;;;;4992567;28;20535;-66
2021/06/10 09:47:07;;;;;;;6.97;6.30;;;25.80;99.90;;;;;;4993830;28;20520;-67
2021/06/10 09:49:37;;;;;;;6.77;6.17;;;25.60;99.90;;;;;;4983121;28;20484;-67
2021/06/10 09:52:05;;;;;;;6.67;6.07;;;25.60;99.90;;;;;;4974710;28;20913;-67
2021/06/10 09:54:45;;;;;;;6.00;5.50;;;25.50;99.90;;;;;;4993432;28;20409;-67
2021/06/10 09:57:14;;;;;;;5.70;4.73;;;25.50;99.90;;;;;;4993824;28;21005;-66
2021/06/10 09:59:56;;;;;;;5.33;4.83;;;25.50;99.90;;;;;;4993873;28;20972;-66
2021/06/10 10:02:26;;;;;;;6.73;6.13;;;25.40;99.90;;;;;;4991509;28;20451;-66
2021/06/10 10:05:05;;;;;;;5.87;5.37;;;25.50;99.90;;;;;;4993812;28;20417;-67
2021/06/10 10:07:34;;;;;;;5.40;5.00;;;25.60;99.90;;;;;;4994104;28;20978;-67
2021/06/10 10:10:05;;;;;;;6.57;5.97;;;25.50;99.90;;;;;;4993229;28;20480;-67
2021/06/10 10:12:34;;;;;;;6.70;4.93;;;25.70;99.90;;;;;;4991798;28;20464;-67
2021/06/10 10:15:02;;;;;;;6.10;5.50;;;26.00;99.90;;;;;;4992096;28;20816;-67
2021/06/10 10:17:30;;;;;;;5.37;4.87;;;26.10;99.90;;;;;;4992507;28;20429;-65
2021/06/10 10:19:58;;;;;;;5.10;4.60;;;26.10;99.90;;;;;;4992374;28;20448;-66
2021/06/10 10:22:27;;;;;;;5.67;5.03;;;25.90;99.90;;;;;;4992528;28;20429;-66
2021/06/10 10:24:55;;;;;;;5.40;5.00;;;25.50;99.90;;;;;;4992150;28;20825;-66
2021/06/10 10:27:23;;;;;;;5.80;5.40;;;25.30;99.90;;;;;;4993192;28;20837;-66
2021/06/10 10:29:52;;;;;;;5.30;4.90;;;25.50;99.90;;;;;;4992345;28;20469;-67
2021/06/10 10:32:25;;;;;;;5.57;5.13;;;25.70;99.90;;;;;;4991408;28;20436;-67
2021/06/10 10:35:24;;;;;;;5.77;5.27;;;25.80;99.90;;;;;;4991833;28;20429;-67
2021/06/10 10:37:55;;;;;;;7.03;6.40;;;25.90;99.90;;;;;;4992037;28;20433;-67
2021/06/10 10:40:25;;;;;;;6.33;4.70;;;26.00;99.90;;;;;;4990838;28;20520;-67
2021/06/10 10:42:54;;;;;;;5.80;5.30;;;26.00;99.90;;;;;;4991804;28;20917;-67
2021/06/10 10:45:24;;;;;;;6.33;5.73;;;26.00;99.90;;;;;;4991784;28;20509;-67
2021/06/10 10:47:59;;;;;;;5.63;5.10;;;26.00;99.90;;;;;;4988474;28;20484;-67
2021/06/10 10:50:35;;;;;;;5.87;5.37;;;26.00;99.90;;;;;;4993599;28;20519;-67
2021/06/10 10:53:08;;;;;;;5.87;5.37;;;26.10;99.90;;;;;;4995095;28;20422;-65
2021/06/10 10:55:36;;;;;;;6.23;5.60;;;26.10;99.90;;;;;;4996189;28;20428;-66
2021/06/10 10:58:07;;;;;;;5.80;5.30;;;26.20;99.90;;;;;;4996934;28;20422;-66
2021/06/10 11:00:52;;;;;;;6.07;5.57;;;26.30;99.90;;;;;;4991938;28;20457;-66
2021/06/10 11:03:25;;;;;;;5.30;4.80;;;26.10;99.90;;;;;;4992362;28;20465;-66
2021/06/10 11:05:54;;;;;;;6.13;5.53;;;26.20;99.90;;;;;;4993062;28;20498;-67
2021/06/10 11:08:24;;;;;;;5.50;5.00;;;26.20;99.90;;;;;;4996759;28;20430;-67
2021/06/10 11:11:01;;;;;;;5.33;4.80;;;26.10;99.90;;;;;;4996964;28;20486;-67
2021/06/10 11:13:31;;;;;;;5.27;4.77;;;26.00;99.90;;;;;;4998871;28;20424;-67
2021/06/10 11:16:02;;;;;;;5.90;5.30;;;26.10;99.90;;;;;;4998134;28;20415;-66
2021/06/10 11:18:41;;;;;;;5.90;5.50;;;26.00;99.90;;;;;;4992888;28;20521;-67
2021/06/10 11:21:09;;;;;;;4.57;4.27;;;26.30;99.90;;;;;;4992336;28;20512;-67
2021/06/10 11:23:38;;;;;;;5.57;5.07;;;26.40;99.90;;;;;;4992052;28;20438;-67
2021/06/10 11:26:18;;;;;;;4.60;4.20;;;26.40;99.90;;;;;;4991959;28;20841;-66
2021/06/10 11:29:00;;;;;;;5.10;4.70;;;26.30;99.90;;;;;;4992479;28;20459;-67
2021/06/10 11:31:30;;;;;;;4.97;4.53;;;26.50;99.90;;;;;;4990836;28;20958;-67
2021/06/10 11:34:28;;;;;;;5.40;5.00;;;26.50;99.90;;;;;;4991005;28;20441;-67
2021/06/10 11:36:57;;;;;;;4.23;3.93;;;26.80;99.90;;;;;;4992334;28;20422;-67
2021/06/10 11:39:31;;;;;;;5.03;4.37;;;27.00;99.90;;;;;;4991387;28;20523;-68
2021/06/10 11:42:06;;;;;;;10.00;4.67;;;27.20;99.90;;;;;;4991346;28;20440;-67
2021/06/10 11:44:44;;;;;;;5.07;4.67;;;27.30;99.90;;;;;;4991598;28;20487;-68
2021/06/10 11:47:38;;;;;;;5.77;5.30;;;27.30;99.90;;;;;;4992451;28;20426;-67
2021/06/10 11:50:22;;;;;;;5.17;4.77;;;27.30;99.90;;;;;;4978035;28;20448;-67
2021/06/10 11:52:50;;;;;;;5.53;5.00;;;27.20;99.90;;;;;;4990027;28;20485;-67
2021/06/10 11:55:20;;;;;;;5.10;4.70;;;27.10;99.90;;;;;;4991761;28;20513;-67
2021/06/10 11:57:56;;;;;;;5.07;4.60;;;27.20;99.90;;;;;;4991138;28;20433;-67
2021/06/10 12:00:36;;;;;;;4.90;4.50;;;27.10;99.90;;;;;;4990770;28;20434;-67
2021/06/10 12:03:05;;;;;;;4.63;4.23;;;27.10;99.90;;;;;;4990395;28;20458;-67
2021/06/10 12:05:37;;;;;;;5.50;5.10;;;27.30;99.90;;;;;;4990665;28;20429;-67
2021/06/10 12:08:10;;;;;;;5.77;5.27;;;27.50;99.90;;;;;;4991062;28;20795;-68
2021/06/10 12:10:40;;;;;;;4.40;4.10;;;27.30;99.90;;;;;;4990980;28;20433;-67
2021/06/10 12:13:08;;;;;;;5.00;4.60;;;27.00;99.90;;;;;;4990279;28;20426;-66
2021/06/10 12:15:44;;;;;;;4.70;4.30;;;27.00;99.90;;;;;;4991084;28;20500;-66
2021/06/10 12:18:14;;;;;;;5.77;5.27;;;27.20;99.90;;;;;;4990883;28;20428;-68
2021/06/10 12:20:54;;;;;;;5.43;5.03;;;27.40;99.90;;;;;;4991306;28;21000;-68
2021/06/10 12:23:27;;;;;;;4.60;4.20;;;27.40;99.90;;;;;;4990261;28;20426;-68
2021/06/10 12:25:59;;;;;;;4.50;4.10;;;27.40;99.90;;;;;;4990660;28;20438;-67
2021/06/10 12:28:29;;;;;;;5.13;4.73;;;27.40;99.90;;;;;;4990182;28;20413;-67
2021/06/10 12:31:16;;;;;;;4.20;3.90;;;27.40;99.90;;;;;;4986055;28;20477;-67
2021/06/10 12:33:47;;;;;;;4.30;4.00;;;27.00;99.90;;;;;;4986523;28;20433;-67
2021/06/10 12:36:20;;;;;;;5.30;4.90;;;26.90;99.90;;;;;;4988643;28;20397;-67
2021/06/10 12:38:57;;;;;;;5.13;4.73;;;27.00;99.90;;;;;;4989807;28;20474;-66
2021/06/10 12:41:28;;;;;;;6.23;4.53;;;27.20;99.90;;;;;;4988752;28;20405;-66
2021/06/10 12:44:08;;;;;;;6.23;4.37;;;27.50;99.90;;;;;;4983050;28;20866;-67
2021/06/10 12:46:47;;;;;;;4.20;3.90;;;27.70;99.90;;;;;;4990395;28;20525;-67
2021/06/10 12:49:16;;;;;;;7.67;4.77;;;27.80;99.90;;;;;;4988650;28;20461;-67
2021/06/10 12:51:45;;;;;;;4.27;3.97;;;27.70;99.90;;;;;;4990147;28;20976;-66
2021/06/10 12:54:14;;;;;;;3.93;3.63;;;27.80;99.90;;;;;;4989639;28;20454;-67
2021/06/10 12:56:48;;;;;;;4.33;4.03;;;27.80;99.90;;;;;;4989421;28;20814;-66
2021/06/10 12:59:35;;;;;;;4.63;4.23;;;27.70;99.90;;;;;;4989863;28;20428;-67